Terminal Aerodrome Forecast
Issued by NWS

Home | Current Version | Previous Version | Text Only | Print | Product List | Glossary Off
Versions: 1 2 3 4 5 6 7 8 9 10 11 12 13 14 15 16 17

000
FTUS43 KMPX 280520
TAFRNH
TAF
KRNH 280520Z 2806/2906 16009KT P6SM OVC012
     FM280900 15010KT P6SM OVC009
     FM281500 15012G19KT P6SM OVC015
     FM282200 15009KT P6SM OVC012
     FM290000 VRB05KT P6SM OVC009 PROB30 2900/2906 -FZDZSN SCT009
      BKN015=

USA.gov is the U.S. government's official web portal to all federal, state and local government web resources and services.